createdAt,value
2023-09-15T00:00:37.726Z,67.84
2023-09-15T00:06:11.199Z,67.75
2023-09-15T00:11:20.343Z,67.90
2023-09-15T00:16:31.910Z,67.82
2023-09-15T00:21:44.808Z,68.18
2023-09-15T00:39:27.454Z,68.34
2023-09-15T00:44:33.062Z,68.49
2023-09-15T00:49:41.140Z,68.58
2023-09-15T00:54:46.725Z,68.43
2023-09-15T00:59:52.678Z,68.36
2023-09-15T01:04:57.723Z,68.26
2023-09-15T01:10:15.638Z,68.45
2023-09-15T01:15:24.385Z,68.43
2023-09-15T01:21:13.862Z,68.80
2023-09-15T01:26:58.498Z,69.13
2023-09-15T01:32:04.038Z,69.38
2023-09-15T01:37:09.230Z,69.15
2023-09-15T01:42:16.814Z,69.35
2023-09-15T01:47:24.800Z,69.62
2023-09-15T01:52:31.204Z,69.94
2023-09-15T01:57:36.544Z,70.11
2023-09-15T02:02:42.621Z,70.10
2023-09-15T02:07:48.080Z,70.39
2023-09-15T02:12:55.065Z,70.60
2023-09-15T02:18:03.313Z,70.99
2023-09-15T02:23:17.367Z,71.38
2023-09-15T02:28:22.183Z,71.62
2023-09-15T02:33:29.073Z,71.74
2023-09-15T02:38:34.435Z,71.70
2023-09-15T02:43:49.268Z,71.79
2023-09-15T02:48:57.711Z,71.92
2023-09-15T02:54:07.240Z,71.80
2023-09-15T02:59:14.039Z,72.01
2023-09-15T03:04:21.654Z,72.12
2023-09-15T03:09:28.839Z,72.06
2023-09-15T03:14:36.774Z,71.62
2023-09-15T03:19:45.400Z,71.73
2023-09-15T03:24:57.745Z,71.94
2023-09-15T03:30:33.361Z,72.17
2023-09-15T03:35:39.023Z,72.38
2023-09-15T03:40:42.118Z,72.31
2023-09-15T03:45:47.794Z,72.31
2023-09-15T03:50:53.400Z,72.55
2023-09-15T03:55:56.988Z,72.66
2023-09-15T04:01:02.867Z,72.88
2023-09-15T04:06:06.948Z,73.43
2023-09-15T04:11:13.184Z,73.01
2023-09-15T04:19:19.489Z,71.97
2023-09-15T04:24:25.772Z,72.16
2023-09-15T04:29:31.714Z,72.03
2023-09-15T04:34:40.224Z,72.10
2023-09-15T04:39:48.487Z,72.33
2023-09-15T04:44:57.249Z,72.44
2023-09-15T04:50:05.282Z,72.73
2023-09-15T04:55:11.368Z,72.91
2023-09-15T05:00:28.468Z,72.49
2023-09-15T05:05:57.929Z,72.69
2023-09-15T05:11:04.687Z,72.66
2023-09-15T05:16:12.161Z,72.77
2023-09-15T05:21:23.210Z,73.00
2023-09-15T05:26:29.995Z,73.37
2023-09-15T05:31:35.594Z,73.44
2023-09-15T05:36:43.590Z,73.46
2023-09-15T05:41:49.959Z,73.23
2023-09-15T05:46:56.164Z,73.35
2023-09-15T05:52:04.025Z,73.87
2023-09-15T05:57:13.537Z,73.80
2023-09-15T06:02:18.999Z,73.92
2023-09-15T06:07:33.323Z,73.70
2023-09-15T06:12:38.501Z,73.26
2023-09-15T06:17:44.716Z,73.11
2023-09-15T06:22:51.063Z,73.21
2023-09-15T06:28:15.064Z,72.90
2023-09-15T06:33:45.293Z,72.19
2023-09-15T06:38:54.560Z,71.05
2023-09-15T06:44:00.930Z,70.02
2023-09-15T06:49:07.042Z,68.99
2023-09-15T06:54:14.964Z,68.62
2023-09-15T06:59:31.138Z,67.82
2023-09-15T07:04:37.227Z,67.61
2023-09-15T07:09:42.410Z,67.85
2023-09-15T07:14:47.127Z,67.31
2023-09-15T07:19:52.430Z,67.39
2023-09-15T07:24:58.308Z,66.57
2023-09-15T07:30:09.635Z,66.06
2023-09-15T07:35:18.513Z,65.73
2023-09-15T07:40:26.518Z,64.44
2023-09-15T07:45:30.840Z,64.36
2023-09-15T07:50:35.395Z,64.14
2023-09-15T07:55:40.925Z,63.95
2023-09-15T08:00:46.152Z,63.71
2023-09-15T08:05:54.240Z,63.81
2023-09-15T08:10:59.406Z,62.65
2023-09-15T08:16:06.276Z,63.28
2023-09-15T08:21:15.015Z,62.83
2023-09-15T08:26:21.513Z,61.70
2023-09-15T08:31:30.748Z,61.60
2023-09-15T08:36:36.210Z,60.95
2023-09-15T08:42:14.153Z,60.36
2023-09-15T08:47:22.169Z,59.45
2023-09-15T08:52:27.587Z,59.74
2023-09-15T08:57:37.810Z,58.88
2023-09-15T09:02:45.271Z,57.81
2023-09-15T09:07:54.923Z,57.06
2023-09-15T09:13:01.685Z,56.03
2023-09-15T09:18:19.614Z,55.34
2023-09-15T09:23:24.761Z,54.68
2023-09-15T09:28:30.344Z,54.96
2023-09-15T09:33:40.399Z,54.99
2023-09-15T09:38:54.168Z,55.12
2023-09-15T09:43:59.295Z,54.46
2023-09-15T09:49:06.222Z,54.43
2023-09-15T09:54:12.961Z,53.94
2023-09-15T09:59:21.046Z,53.21
2023-09-15T10:04:28.531Z,52.74
2023-09-15T10:09:34.587Z,52.27
2023-09-15T10:14:42.945Z,51.66
2023-09-15T10:19:49.772Z,51.71
2023-09-15T10:25:02.241Z,51.75
2023-09-15T10:30:09.464Z,52.38
2023-09-15T10:35:14.607Z,52.30
2023-09-15T10:40:18.180Z,52.23
2023-09-15T10:45:24.307Z,52.05
2023-09-15T10:52:38.311Z,52.05
2023-09-15T10:57:43.458Z,51.70
2023-09-15T11:02:49.824Z,51.63
2023-09-15T11:07:57.880Z,51.40
2023-09-15T11:13:05.037Z,51.50
2023-09-15T11:18:16.406Z,51.70
2023-09-15T11:23:27.291Z,51.26
2023-09-15T11:28:38.947Z,51.49
2023-09-15T11:33:44.287Z,51.07
2023-09-15T11:38:51.269Z,50.45
2023-09-15T11:43:59.754Z,50.79
2023-09-15T11:49:08.167Z,50.52
2023-09-15T11:54:14.183Z,49.92
2023-09-15T11:59:20.505Z,50.03
2023-09-15T12:04:28.261Z,49.68
2023-09-15T12:09:36.637Z,48.47
2023-09-15T12:14:45.442Z,47.78
2023-09-15T12:19:53.833Z,47.18
2023-09-15T12:25:01.678Z,47.02
2023-09-15T12:30:09.906Z,46.73
2023-09-15T12:35:17.066Z,46.28
2023-09-15T12:40:21.421Z,44.76
2023-09-15T12:45:29.907Z,44.71
2023-09-15T12:50:35.427Z,43.14
2023-09-15T12:55:41.380Z,43.16
2023-09-15T13:00:46.148Z,42.09
2023-09-15T13:05:54.989Z,41.54
2023-09-15T13:11:00.939Z,41.02
2023-09-15T13:16:08.650Z,40.19
2023-09-15T13:21:15.380Z,39.27
2023-09-15T13:26:20.510Z,38.89
2023-09-15T13:31:25.273Z,38.06
2023-09-15T13:36:31.271Z,37.12
2023-09-15T13:41:36.783Z,36.74
2023-09-15T13:46:41.985Z,36.04
2023-09-15T13:51:46.131Z,36.10
2023-09-15T13:56:51.870Z,36.21
2023-09-15T14:01:57.396Z,35.78
2023-09-15T14:07:11.163Z,36.57
2023-09-15T14:12:18.798Z,37.34
2023-09-15T14:17:28.854Z,38.00
2023-09-15T14:22:35.637Z,38.84
2023-09-15T14:27:41.416Z,38.68
2023-09-15T14:32:47.271Z,39.46
2023-09-15T14:37:52.356Z,40.37
2023-09-15T14:42:57.884Z,41.30
2023-09-15T14:48:06.840Z,42.00
2023-09-15T14:53:12.300Z,42.00
2023-09-15T14:58:16.268Z,43.70
2023-09-15T15:03:21.862Z,44.85
2023-09-15T15:08:27.368Z,44.61
2023-09-15T15:13:32.904Z,44.72
2023-09-15T15:18:38.527Z,43.94
2023-09-15T15:23:44.903Z,43.76
2023-09-15T15:28:51.249Z,44.30
2023-09-15T15:33:56.405Z,44.04
2023-09-15T15:39:01.143Z,43.85
2023-09-15T15:44:12.474Z,43.64
2023-09-15T15:49:18.426Z,43.74
2023-09-15T15:54:23.197Z,43.96
2023-09-15T15:59:29.946Z,44.39
2023-09-15T16:04:36.409Z,44.43
2023-09-15T16:09:42.414Z,44.38
2023-09-15T16:14:47.888Z,44.53
2023-09-15T16:19:52.616Z,44.75
2023-09-15T16:24:57.361Z,45.19
2023-09-15T16:30:03.736Z,45.83
2023-09-15T16:35:12.223Z,46.24
2023-09-15T16:40:17.324Z,46.18
2023-09-15T16:45:22.919Z,46.79
2023-09-15T16:50:27.238Z,47.34
2023-09-15T16:55:35.309Z,47.33
2023-09-15T17:00:41.693Z,48.27
2023-09-15T17:05:51.778Z,48.67
2023-09-15T17:10:56.885Z,49.25
2023-09-15T17:16:03.271Z,49.01
2023-09-15T17:21:10.449Z,49.21
2023-09-15T17:26:16.005Z,49.99
2023-09-15T17:31:23.653Z,50.72
2023-09-15T17:36:28.855Z,51.03
2023-09-15T17:41:34.335Z,51.18
2023-09-15T17:46:38.376Z,52.45
2023-09-15T17:51:44.753Z,52.27
2023-09-15T17:56:55.947Z,52.85
2023-09-15T18:02:01.931Z,52.27
2023-09-15T18:07:12.007Z,52.42
2023-09-15T18:12:19.278Z,52.62
2023-09-15T18:17:26.882Z,52.81
2023-09-15T18:22:34.465Z,53.12
2023-09-15T18:31:49.025Z,53.25
2023-09-15T18:36:53.447Z,52.91
2023-09-15T18:41:58.514Z,52.89
2023-09-15T18:47:04.131Z,52.82
2023-09-15T18:52:12.959Z,52.33
2023-09-15T18:57:18.571Z,52.57
2023-09-15T19:02:24.982Z,52.88
2023-09-15T19:07:34.123Z,53.49
2023-09-15T19:12:40.932Z,53.58
2023-09-15T19:17:47.332Z,53.74
2023-09-15T19:22:57.774Z,53.64
2023-09-15T19:28:08.680Z,53.82
2023-09-15T19:33:14.459Z,54.23
2023-09-15T19:38:21.034Z,54.29
2023-09-15T19:43:26.168Z,54.54
2023-09-15T19:48:30.509Z,54.93
2023-09-15T19:53:35.712Z,55.10
2023-09-15T19:58:41.629Z,55.56
2023-09-15T20:03:48.517Z,55.87
2023-09-15T20:09:00.847Z,56.14
2023-09-15T20:14:10.616Z,56.37
2023-09-15T20:19:18.271Z,56.62
2023-09-15T20:24:23.402Z,57.06
2023-09-15T20:29:28.973Z,57.49
2023-09-15T20:34:34.092Z,57.67
2023-09-15T20:39:40.133Z,57.96
2023-09-15T20:44:46.055Z,58.14
2023-09-15T20:49:52.021Z,58.26
2023-09-15T20:54:58.033Z,58.77
2023-09-15T21:00:03.967Z,59.06
2023-09-15T21:05:11.591Z,59.56
2023-09-15T21:10:17.183Z,59.96
2023-09-15T21:15:22.773Z,60.34
2023-09-15T21:20:27.878Z,60.48
2023-09-15T21:25:37.110Z,60.65
2023-09-15T21:30:43.138Z,60.93
2023-09-15T21:35:50.377Z,61.24
2023-09-15T21:40:56.661Z,61.43
2023-09-15T21:46:03.975Z,61.66
2023-09-15T21:51:10.248Z,61.97
2023-09-15T21:56:14.628Z,62.25
2023-09-15T22:01:21.049Z,62.53
2023-09-15T22:06:30.264Z,63.02
2023-09-15T22:11:39.473Z,63.17
2023-09-15T22:16:46.311Z,63.32
2023-09-15T22:21:53.910Z,63.69
2023-09-15T22:27:00.672Z,63.83
2023-09-15T22:32:05.419Z,64.02
2023-09-15T22:37:10.140Z,64.07
2023-09-15T22:42:17.248Z,64.32
2023-09-15T22:47:24.894Z,64.70
2023-09-15T22:52:33.347Z,64.73
2023-09-15T22:57:41.158Z,64.99
2023-09-15T23:02:49.808Z,65.19
2023-09-15T23:07:59.068Z,65.12
2023-09-15T23:13:05.027Z,65.01
2023-09-15T23:18:11.370Z,64.99
2023-09-15T23:23:18.580Z,64.89
2023-09-15T23:28:24.525Z,65.00
2023-09-15T23:33:31.765Z,65.07
2023-09-15T23:38:38.541Z,65.13
2023-09-15T23:43:44.524Z,65.23
2023-09-15T23:48:55.750Z,65.35
2023-09-15T23:54:01.306Z,65.58
2023-09-15T23:59:08.098Z,65.64
